Time;durP1;ratioP1;P1;durP2;ratioP2;P2;SDS_P1;SDS_P2;PMS_P1;PMS_P2;Temp;Humidity;BMP_temperature;BMP_pressure;BME280_temperature;BME280_humidity;BME280_pressure;Samples;Min_cycle;Max_cycle;Signal;HPM_P1;HPM_P2
2022/10/04 00:00:40;;;;;;;12.93;6.18;;;8.20;99.90;;;;;;5088944;28;20036;-48
2022/10/04 00:03:22;;;;;;;10.77;6.28;;;8.20;99.90;;;;;;5082093;28;20096;-51
2022/10/04 00:05:53;;;;;;;9.75;6.18;;;8.20;99.90;;;;;;5091525;28;20040;-52
2022/10/04 00:08:41;;;;;;;12.45;6.80;;;8.20;99.90;;;;;;5091341;28;20109;-49
2022/10/04 00:11:26;;;;;;;16.00;6.00;;;8.20;99.90;;;;;;5089494;28;21840;-50
2022/10/04 00:13:57;;;;;;;14.02;6.90;;;8.20;99.90;;;;;;5085915;28;20040;-50
2022/10/04 00:16:34;;;;;;;11.80;6.22;;;8.20;99.90;;;;;;5091230;28;20067;-51
2022/10/04 00:19:35;;;;;;;12.07;5.57;;;8.20;99.90;;;;;;5091865;28;20500;-49
2022/10/04 00:22:09;;;;;;;13.38;6.93;;;8.20;99.90;;;;;;5089897;28;20467;-50
2022/10/04 00:24:36;;;;;;;10.88;6.53;;;8.20;99.90;;;;;;5090954;28;20118;-49
2022/10/04 00:27:09;;;;;;;;;;;8.20;99.90;;;;;;5091790;28;20036;-50
2022/10/04 00:29:36;;;;;;;;;;;8.20;99.90;;;;;;5089092;28;19974;-49
2022/10/04 00:32:09;;;;;;;;;;;8.30;99.90;;;;;;5091971;28;19920;-49
2022/10/04 00:34:49;;;;;;;;;;;8.20;99.90;;;;;;5091219;28;19942;-49
2022/10/04 00:37:16;;;;;;;;;;;8.20;99.90;;;;;;5091954;28;20360;-50
2022/10/04 00:39:44;;;;;;;;;;;8.20;99.90;;;;;;5104139;28;20341;-50
2022/10/04 00:42:29;;;;;;;;;;;8.20;99.90;;;;;;5111964;28;20022;-50
2022/10/04 00:44:59;;;;;;;;;;;8.20;99.90;;;;;;5111243;28;19920;-49
2022/10/04 00:47:35;;;;;;;;;;;8.20;99.90;;;;;;5108469;28;20020;-53
2022/10/04 00:50:04;;;;;;;;;;;8.10;99.90;;;;;;5090084;28;19927;-50
2022/10/04 00:52:33;;;;;;;;;;;8.20;99.90;;;;;;5091593;28;19924;-50
2022/10/04 00:55:06;;;;;;;;;;;8.20;99.90;;;;;;5090738;28;19920;-49
2022/10/04 00:57:42;;;;;;;;;;;8.10;99.90;;;;;;5091193;28;19966;-52
2022/10/04 01:00:17;;;;;;;;;;;8.10;99.90;;;;;;5090607;28;19951;-49
2022/10/04 01:02:51;;;;;;;;;;;8.10;99.90;;;;;;5091231;28;19955;-50
2022/10/04 01:05:35;;;;;;;;;;;8.00;99.90;;;;;;5089713;28;19924;-49
2022/10/04 01:08:10;;;;;;;;;;;8.00;99.90;;;;;;5086524;28;19969;-49
2022/10/04 01:10:44;;;;;;;;;;;8.00;99.90;;;;;;5090614;28;19952;-51
2022/10/04 01:13:12;;;;;;;;;;;8.00;99.90;;;;;;5090815;28;19954;-50
2022/10/04 01:15:42;;;;;;;;;;;8.00;99.90;;;;;;5090464;28;19959;-51
2022/10/04 01:18:09;;;;;;;;;;;7.90;99.90;;;;;;5090188;28;19931;-50
2022/10/04 01:20:56;;;;;;;;;;;7.80;99.90;;;;;;5091548;28;19967;-49
2022/10/04 01:23:40;;;;;;;;;;;7.80;99.90;;;;;;5091245;28;20010;-50
2022/10/04 01:26:25;;;;;;;;;;;7.70;99.90;;;;;;5089281;28;20415;-50
2022/10/04 01:28:52;;;;;;;;;;;7.60;99.90;;;;;;5091440;28;20014;-49
2022/10/04 01:31:19;;;;;;;;;;;7.60;99.90;;;;;;5089470;28;20007;-50
2022/10/04 01:33:46;;;;;;;;;;;7.60;99.90;;;;;;5085179;28;19947;-49
2022/10/04 01:36:13;;;;;;;;;;;7.60;99.90;;;;;;5094769;28;19960;-49
2022/10/04 01:38:40;;;;;;;;;;;7.60;99.90;;;;;;5094948;28;20476;-49
2022/10/04 01:41:07;;;;;;;;;;;7.60;99.90;;;;;;5093821;28;20006;-51
2022/10/04 01:43:37;;;;;;;;;;;7.70;99.90;;;;;;5094387;28;19962;-49
2022/10/04 01:46:06;;;;;;;;;;;7.70;99.90;;;;;;5094621;28;19978;-50
2022/10/04 01:48:35;;;;;;;;;;;7.70;99.90;;;;;;5094619;28;19978;-52
2022/10/04 01:51:05;;;;;;;;;;;7.70;99.90;;;;;;5093337;28;19924;-49
2022/10/04 01:53:40;;;;;;;;;;;7.70;99.90;;;;;;5087999;28;19924;-50
2022/10/04 01:56:09;;;;;;;;;;;7.70;99.90;;;;;;5094216;28;19947;-50
2022/10/04 01:58:43;;;;;;;;;;;7.70;99.90;;;;;;5093803;28;19924;-51
2022/10/04 02:01:13;;;;;;;;;;;7.70;99.90;;;;;;5094031;28;19924;-50
2022/10/04 02:04:06;;;;;;;;;;;7.70;99.90;;;;;;5088095;28;19924;-50
2022/10/04 02:06:35;;;;;;;;;;;7.80;99.90;;;;;;5085455;28;20680;-49
2022/10/04 02:09:07;;;;;;;;;;;7.80;99.90;;;;;;5094494;28;19978;-49
2022/10/04 02:11:35;;;;;;;;;;;7.70;99.90;;;;;;5092828;28;20354;-49
2022/10/04 02:14:04;;;;;;;;;;;7.60;99.90;;;;;;5103057;22;20015;-53
2022/10/04 02:16:35;;;;;;;;;;;7.70;99.90;;;;;;5093243;28;19963;-54
2022/10/04 02:19:02;;;;;;;;;;;7.70;99.90;;;;;;5094027;28;20337;-51
2022/10/04 02:21:29;;;;;;;;;;;7.60;99.90;;;;;;5091204;28;19919;-53
2022/10/04 02:23:56;;;;;;;;;;;7.60;99.90;;;;;;5096068;28;19924;-53
2022/10/04 02:26:22;;;;;;;;;;;7.50;99.90;;;;;;5079780;28;19964;-52
2022/10/04 02:28:50;;;;;;;;;;;7.60;99.90;;;;;;5076620;28;19973;-54
2022/10/04 02:34:03;;;;;;;;;;;7.70;99.90;;;;;;5068787;28;19920;-52
2022/10/04 02:36:32;;;;;;;;;;;7.60;99.90;;;;;;5073587;28;19966;-54
2022/10/04 02:39:01;;;;;;;;;;;7.60;99.90;;;;;;5073490;28;20010;-52
2022/10/04 02:41:30;;;;;;;;;;;7.60;99.90;;;;;;5072269;28;19919;-51
2022/10/04 02:44:00;;;;;;;;;;;7.60;99.90;;;;;;5087042;28;19974;-52
2022/10/04 02:46:29;;;;;;;;;;;7.60;99.90;;;;;;5092328;28;19962;-54
2022/10/04 02:49:00;;;;;;;;;;;7.60;99.90;;;;;;5092761;28;19920;-52
2022/10/04 02:51:39;;;;;;;;;;;7.60;99.90;;;;;;5093271;28;19920;-54
2022/10/04 02:54:13;;;;;;;;;;;7.60;99.90;;;;;;5086197;28;19966;-53
2022/10/04 02:56:40;;;;;;;;;;;7.60;99.90;;;;;;5093540;28;19949;-52
2022/10/04 02:59:15;;;;;;;;;;;7.70;99.90;;;;;;5093429;28;19927;-52
2022/10/04 03:01:48;;;;;;;;;;;7.70;99.90;;;;;;5069618;28;20372;-51
2022/10/04 03:04:15;;;;;;;;;;;7.60;99.90;;;;;;5079319;28;19928;-54
2022/10/04 03:06:44;;;;;;;;;;;7.70;99.90;;;;;;5092050;28;19948;-52
2022/10/04 03:09:12;;;;;;;;;;;7.70;99.90;;;;;;5093365;28;19947;-56
2022/10/04 03:11:39;;;;;;;;;;;7.70;99.90;;;;;;5091562;28;19951;-51
2022/10/04 03:14:14;;;;;;;;;;;7.70;99.90;;;;;;5071778;28;20011;-51
2022/10/04 03:16:43;;;;;;;;;;;7.70;99.90;;;;;;5072993;28;20543;-51
2022/10/04 03:19:11;;;;;;;;;;;7.60;99.90;;;;;;5066482;28;20412;-53
2022/10/04 03:21:39;;;;;;;;;;;7.70;99.90;;;;;;5081679;28;19952;-52
2022/10/04 03:24:06;;;;;;;;;;;7.70;99.90;;;;;;5091974;28;20449;-54
2022/10/04 03:26:37;;;;;;;;;;;7.70;99.90;;;;;;5092994;28;19960;-51
2022/10/04 03:29:08;;;;;;;;;;;7.70;99.90;;;;;;5082767;28;20284;-53
2022/10/04 03:31:43;;;;;;;;;;;7.60;99.90;;;;;;5060760;28;20015;-54
2022/10/04 03:34:13;;;;;;;;;;;7.60;99.90;;;;;;5056597;28;19932;-52
2022/10/04 03:36:40;;;;;;;;;;;7.60;99.90;;;;;;5077513;28;19920;-52
2022/10/04 03:39:08;;;;;;;;;;;7.60;99.90;;;;;;5062985;28;20288;-53
2022/10/04 03:41:37;;;;;;;;;;;7.60;99.90;;;;;;5069545;28;20338;-52
2022/10/04 03:44:06;;;;;;;;;;;7.60;99.90;;;;;;5071286;28;20015;-51
2022/10/04 03:46:33;;;;;;;;;;;7.60;99.90;;;;;;5071425;28;19955;-54
2022/10/04 03:48:59;;;;;;;;;;;7.60;99.90;;;;;;5070677;28;19920;-52
2022/10/04 03:51:26;;;;;;;;;;;7.50;99.90;;;;;;5071028;28;20019;-54
2022/10/04 03:53:56;;;;;;;;;;;7.50;99.90;;;;;;5071225;28;19956;-51
2022/10/04 03:56:34;;;;;;;;;;;7.40;99.90;;;;;;5070120;28;20007;-53
2022/10/04 03:59:04;;;;;;;;;;;7.30;99.90;;;;;;5070610;28;19967;-53
2022/10/04 04:01:37;;;;;;;;;;;7.20;99.90;;;;;;5070880;28;20015;-53
2022/10/04 04:04:03;;;;;;;;;;;7.30;99.90;;;;;;5070857;28;20000;-52
2022/10/04 04:06:39;;;;;;;;;;;7.40;99.90;;;;;;5070224;28;19987;-52
2022/10/04 04:09:06;;;;;;;;;;;7.30;99.90;;;;;;5068839;28;20018;-51
2022/10/04 04:11:34;;;;;;;;;;;7.30;99.90;;;;;;5052670;28;20353;-52
2022/10/04 04:14:03;;;;;;;;;;;7.40;99.90;;;;;;5080918;28;20345;-52
2022/10/04 04:16:30;;;;;;;;;;;7.50;99.90;;;;;;5060542;28;20369;-53
2022/10/04 04:18:59;;;;;;;;;;;7.50;99.90;;;;;;5060422;28;20466;-55
2022/10/04 04:21:26;;;;;;;;;;;7.50;99.90;;;;;;5066696;28;19964;-53
2022/10/04 04:23:58;;;;;;;;;;;7.50;99.90;;;;;;5063527;28;20452;-52
2022/10/04 04:26:45;;;;;;;;;;;7.50;99.90;;;;;;5063437;28;19954;-53
2022/10/04 04:29:17;;;;;;;;;;;7.50;99.90;;;;;;5062462;28;19955;-55
2022/10/04 04:31:45;;;;;;;;;;;7.50;99.90;;;;;;5060158;28;19944;-52
2022/10/04 04:34:15;;;;;;;;;;;7.50;99.90;;;;;;5059610;28;20018;-53
2022/10/04 04:36:42;;;;;;;;;;;7.50;99.90;;;;;;5066075;28;19952;-51
2022/10/04 04:39:33;;;;;;;;;;;7.60;99.90;;;;;;5060418;28;19924;-52
2022/10/04 04:42:09;;;;;;;;;;;7.60;99.90;;;;;;5060676;28;19928;-53
2022/10/04 04:44:45;;;;;;;;;;;7.60;99.90;;;;;;5069833;28;20710;-53
2022/10/04 04:47:25;;;;;;;;;;;7.60;99.90;;;;;;5053008;28;19932;-55
2022/10/04 04:49:53;;;;;;;;;;;7.70;99.90;;;;;;5062535;28;19957;-53
2022/10/04 04:52:21;;;;;;;;;;;7.70;99.90;;;;;;5070091;28;19923;-52
2022/10/04 04:54:48;;;;;;;;;;;7.70;99.90;;;;;;5083959;28;19920;-54
2022/10/04 04:57:15;;;;;;;;;;;7.70;99.90;;;;;;5091096;28;20035;-51
2022/10/04 04:59:47;;;;;;;;;;;7.60;99.90;;;;;;5091358;28;19963;-51
2022/10/04 05:02:30;;;;;;;;;;;7.60;99.90;;;;;;5075707;28;19959;-54
2022/10/04 05:05:29;;;;;;;;;;;7.50;99.90;;;;;;5090816;28;19957;-54
2022/10/04 05:08:08;;;;;;;;;;;7.50;99.90;;;;;;5021736;28;19955;-53
2022/10/04 05:10:35;;;;;;;;;;;7.50;99.90;;;;;;5069321;28;19920;-53
2022/10/04 05:13:03;;;;;;;;;;;7.50;99.90;;;;;;5095490;28;20368;-55
2022/10/04 05:15:34;;;;;;;;;;;7.40;99.90;;;;;;5094616;28;20342;-55
2022/10/04 05:18:01;;;;;;;;;;;7.50;99.90;;;;;;5094978;28;20007;-52
2022/10/04 05:20:30;;;;;;;;;;;7.40;99.90;;;;;;5054946;28;19920;-52
2022/10/04 05:22:57;;;;;;;;;;;7.40;99.90;;;;;;5089187;28;19927;-51
2022/10/04 05:25:27;;;;;;;;;;;7.40;99.90;;;;;;5088278;28;20289;-53
2022/10/04 05:27:54;;;;;;;;;;;7.50;99.90;;;;;;5084131;28;19962;-51
2022/10/04 05:30:21;;;;;;;;;;;7.50;99.90;;;;;;5093037;28;19924;-52
2022/10/04 05:33:02;;;;;;;;;;;7.50;99.90;;;;;;5078789;28;20089;-53
2022/10/04 05:35:37;;;;;;;;;;;7.60;99.90;;;;;;5083522;28;19952;-52
2022/10/04 05:38:27;;;;;;;;;;;7.60;99.90;;;;;;5094812;28;20010;-52
2022/10/04 05:41:12;;;;;;;;;;;7.70;99.90;;;;;;5046027;28;19966;-53
2022/10/04 05:43:47;;;;;;;;;;;7.60;99.90;;;;;;5084893;28;19955;-53
2022/10/04 05:46:17;;;;;;;;;;;7.60;99.90;;;;;;5059857;28;20011;-53
2022/10/04 05:48:45;;;;;;;;;;;7.60;99.90;;;;;;5053812;28;19921;-54
2022/10/04 05:51:18;;;;;;;;;;;7.60;99.90;;;;;;5065260;28;20123;-53
2022/10/04 05:53:45;;;;;;;;;;;7.60;99.90;;;;;;5082615;28;20027;-51
2022/10/04 05:56:31;;;;;;;;;;;7.60;99.90;;;;;;5093380;28;19951;-53
2022/10/04 05:59:07;;;;;;;;;;;7.60;99.90;;;;;;5093667;28;20014;-52
2022/10/04 06:01:36;;;;;;;;;;;7.60;99.90;;;;;;5080632;28;20418;-51
2022/10/04 06:04:08;;;;;;;;;;;7.70;99.90;;;;;;5080499;28;19924;-51
2022/10/04 06:06:39;;;;;;;;;;;7.80;99.90;;;;;;5094086;28;19962;-51
2022/10/04 06:09:26;;;;;;;;;;;7.90;99.90;;;;;;5083372;28;19978;-54
2022/10/04 06:12:11;;;;;;;;;;;7.90;99.90;;;;;;5043339;28;20384;-52
2022/10/04 06:14:41;;;;;;;;;;;8.00;99.90;;;;;;5093567;28;19920;-52
2022/10/04 06:17:19;;;;;;;;;;;8.10;99.90;;;;;;5093997;28;20007;-51
2022/10/04 06:19:47;;;;;;;;;;;8.20;99.90;;;;;;5054972;28;19986;-51
2022/10/04 06:22:17;;;;;;;;;;;8.20;99.90;;;;;;5073791;28;19955;-52
2022/10/04 06:24:46;;;;;;;;;;;8.30;99.90;;;;;;5072878;28;19966;-51
2022/10/04 06:27:16;;;;;;;;;;;8.30;99.90;;;;;;5094503;28;19951;-51
2022/10/04 06:29:52;;;;;;;;;;;8.40;99.90;;;;;;5082025;28;19977;-52
2022/10/04 06:32:19;;;;;;;;;;;8.50;99.90;;;;;;5081330;28;20010;-54
2022/10/04 06:35:05;;;;;;;;;;;8.50;99.90;;;;;;5070334;28;19924;-51
2022/10/04 06:37:41;;;;;;;;;;;8.50;99.90;;;;;;5050489;28;20007;-51
2022/10/04 06:40:20;;;;;;;;;;;8.50;99.90;;;;;;5055819;28;20015;-54
2022/10/04 06:42:47;;;;;;;;;;;8.40;99.90;;;;;;5073522;28;19964;-54
2022/10/04 06:45:28;;;;;;;;;;;8.20;99.90;;;;;;5072983;28;19986;-53
2022/10/04 06:48:04;;;;;;;;;;;8.00;99.90;;;;;;5077293;28;19966;-53
2022/10/04 06:50:43;;;;;;;;;;;8.00;99.90;;;;;;5093519;28;20023;-54
2022/10/04 06:53:15;;;;;;;;;;;8.00;99.90;;;;;;5086805;28;20422;-51
2022/10/04 06:56:04;;;;;;;;;;;8.10;99.90;;;;;;5093236;28;19920;-52
2022/10/04 06:58:36;;;;;;;;;;;8.10;99.90;;;;;;5094076;28;20483;-52
2022/10/04 07:01:08;;;;;;;;;;;8.10;99.90;;;;;;5083506;28;19963;-52
2022/10/04 07:03:52;;;;;;;;;;;8.20;99.90;;;;;;5076925;28;19920;-51
2022/10/04 07:06:24;;;;;;;;;;;8.30;99.90;;;;;;5093050;28;20039;-54
2022/10/04 07:08:54;;;;;;;;;;;8.30;99.90;;;;;;5089067;28;19964;-55
2022/10/04 07:11:31;;;;;;;;;;;8.20;99.90;;;;;;5072634;28;19955;-51
2022/10/04 07:14:10;;;;;;;;;;;8.20;99.90;;;;;;5071545;28;19960;-52
2022/10/04 07:16:41;;;;;;;;;;;8.30;99.90;;;;;;5073446;28;20324;-53
2022/10/04 07:19:27;;;;;;;;;;;8.40;99.90;;;;;;5064408;28;19967;-52
2022/10/04 07:22:06;;;;;;;;;;;8.60;99.90;;;;;;5072763;28;19990;-53
2022/10/04 07:24:51;;;;;;;;;;;8.60;99.90;;;;;;5074454;28;20018;-51
2022/10/04 07:27:27;;;;;;;;;;;8.70;99.90;;;;;;5092805;28;19952;-54
2022/10/04 07:29:54;;;;;;;;;;;8.90;99.90;;;;;;5092380;28;20296;-52
2022/10/04 07:32:25;;;;;;;;;;;9.10;99.90;;;;;;5084050;28;20016;-51
2022/10/04 07:34:55;;;;;;;;;;;9.20;99.90;;;;;;5092397;28;19955;-52
2022/10/04 07:37:24;;;;;;;;;;;9.40;99.90;;;;;;5092951;28;19952;-51
2022/10/04 07:39:54;;;;;;;;;;;9.70;99.90;;;;;;5092833;28;19920;-54
2022/10/04 07:42:20;;;;;;;;;;;9.90;99.90;;;;;;5075674;28;19952;-51
2022/10/04 07:44:55;;;;;;;;;;;10.00;99.90;;;;;;5071870;28;19960;-51
2022/10/04 07:47:25;;;;;;;;;;;10.10;99.90;;;;;;5066773;28;19921;-53
2022/10/04 07:49:52;;;;;;;;;;;10.10;99.90;;;;;;5074264;28;20411;-50
2022/10/04 07:52:26;;;;;;;;;;;9.80;99.90;;;;;;5092497;28;20014;-54
2022/10/04 07:54:55;;;;;;;;;;;9.70;99.90;;;;;;5071230;28;20047;-52
2022/10/04 07:57:34;;;;;;;;;;;9.80;99.90;;;;;;5084506;28;20336;-55
2022/10/04 08:00:11;;;;;;;;;;;9.80;99.90;;;;;;5090496;28;20022;-52
2022/10/04 08:02:41;;;;;;;;;;;10.00;99.90;;;;;;5084481;28;19927;-53
2022/10/04 08:05:14;;;;;;;;;;;10.30;99.90;;;;;;5090947;28;19920;-54
2022/10/04 08:07:50;;;;;;;;;;;10.40;99.90;;;;;;5092163;28;19970;-52
2022/10/04 08:10:49;;;;;;;;;;;10.40;99.90;;;;;;5076096;28;19960;-51
2022/10/04 08:13:22;;;;;;;;;;;10.50;99.90;;;;;;5041267;28;19927;-52
2022/10/04 08:16:22;;;;;;;;;;;10.60;99.90;;;;;;5106144;22;19920;-54
2022/10/04 08:19:05;;;;;;;;;;;10.70;99.90;;;;;;5077823;28;20400;-49
2022/10/04 08:21:40;;;;;;;;;;;11.00;99.90;;;;;;5086006;28;19959;-51
2022/10/04 08:24:06;;;;;;;;;;;11.10;99.90;;;;;;5110411;28;20376;-48
2022/10/04 08:26:55;;;;;;;;;;;11.10;99.90;;;;;;5103933;28;19966;-48
2022/10/04 08:32:19;;;;;;;;;;;11.20;99.90;;;;;;5111684;28;19919;-49
2022/10/04 08:34:52;;;;;;;;;;;11.50;99.90;;;;;;5094072;28;19955;-49
2022/10/04 08:37:23;;;;;;;;;;;11.50;99.90;;;;;;5084366;28;19924;-50
2022/10/04 08:40:08;;;;;;;;;;;11.60;99.90;;;;;;5091365;28;19927;-50
2022/10/04 08:42:57;;;;;;;;;;;11.70;99.90;;;;;;5093583;28;19920;-48
2022/10/04 08:45:37;;;;;;;;;;;11.60;99.90;;;;;;5096118;28;19951;-51
2022/10/04 08:48:23;;;;;;;;;;;11.80;99.90;;;;;;5097367;28;20007;-49
2022/10/04 08:51:08;;;;;;;;;;;11.90;99.90;;;;;;5092411;28;20341;-51
2022/10/04 08:53:44;;;;;;;;;;;12.10;99.90;;;;;;5091260;28;20015;-49
2022/10/04 08:56:14;;;;;;;;;;;12.30;99.90;;;;;;5098291;28;19958;-48
2022/10/04 08:58:50;;;;;;;;;;;12.40;99.90;;;;;;5098399;28;19966;-48
2022/10/04 09:01:17;;;;;;;;;;;12.50;99.90;;;;;;5090442;28;19963;-48
2022/10/04 09:04:02;;;;;;;;;;;12.50;99.90;;;;;;5094541;28;19924;-49
2022/10/04 09:06:48;;;;;;;;;;;12.80;99.90;;;;;;5118047;28;19963;-50
2022/10/04 09:09:33;;;;;;;;;;;12.60;99.90;;;;;;5117472;28;19931;-49
2022/10/04 09:12:15;;;;;;;;;;;12.50;99.90;;;;;;5117971;28;19926;-49
2022/10/04 09:14:50;;;;;;;;;;;12.60;99.90;;;;;;5096611;28;20014;-51
2022/10/04 09:17:19;;;;;;;;;;;12.70;99.90;;;;;;5114855;28;19959;-52
2022/10/04 09:20:04;;;;;;;;;;;12.70;99.90;;;;;;5117747;28;19950;-50
2022/10/04 09:23:09;;;;;;;;;;;12.80;99.90;;;;;;5117912;28;19924;-49
2022/10/04 09:26:05;;;;;;;;;;;12.80;99.90;;;;;;5108638;28;20425;-49
2022/10/04 09:28:34;;;;;;;;;;;13.00;99.90;;;;;;5118357;28;19920;-52
2022/10/04 09:31:07;;;;;;;;;;;12.90;99.90;;;;;;5118383;28;19926;-48
2022/10/04 09:33:42;;;;;;;;;;;13.00;99.90;;;;;;5102894;28;19919;-49
2022/10/04 09:36:08;;;;;;;;;;;13.20;99.90;;;;;;5118297;28;19983;-49
2022/10/04 09:38:47;;;;;;;;;;;13.40;99.90;;;;;;5118903;28;19970;-49
2022/10/04 09:41:37;;;;;;;;;;;13.60;99.90;;;;;;5103221;28;20396;-51
2022/10/04 09:44:04;;;;;;;;;;;13.70;99.90;;;;;;5105842;28;19955;-49
2022/10/04 09:46:43;;;;;;;;;;;13.70;99.90;;;;;;5118052;28;20387;-52
2022/10/04 09:49:35;;;;;;;;;;;13.70;99.90;;;;;;5116865;28;20384;-51
2022/10/04 09:52:08;;;;;;;;;;;13.70;99.90;;;;;;5110225;28;19919;-49
2022/10/04 09:55:03;;;;;;;;;;;13.80;99.90;;;;;;5109496;28;19920;-49
2022/10/04 09:57:48;;;;;;;;;;;14.10;99.90;;;;;;5114698;28;20014;-49
2022/10/04 10:00:22;;;;;;;;;;;14.10;99.90;;;;;;5114051;28;20006;-49
2022/10/04 10:03:07;;;;;;;;;;;14.20;99.90;;;;;;5114797;28;19955;-54
2022/10/04 10:05:43;;;;;;;;;;;14.30;99.90;;;;;;5100738;28;19924;-49
2022/10/04 10:08:28;;;;;;;;;;;14.40;99.90;;;;;;5103334;28;20410;-49
2022/10/04 10:14:05;;;;;;;;;;;14.70;99.90;;;;;;5101254;28;19974;-49
2022/10/04 10:16:47;;;;;;;;;;;14.90;99.90;;;;;;5113520;28;19969;-51
2022/10/04 10:19:20;;;;;;;;;;;15.20;99.90;;;;;;5108794;28;20022;-49
2022/10/04 10:22:27;;;;;;;;;;;15.00;99.90;;;;;;5104206;28;19919;-50
2022/10/04 10:25:12;;;;;;;;;;;15.20;99.90;;;;;;5113353;28;19955;-50
2022/10/04 10:27:52;;;;;;;;;;;15.10;99.90;;;;;;5107939;28;20022;-48
2022/10/04 10:30:23;;;;;;;;;;;15.10;99.90;;;;;;5096684;28;19958;-49
2022/10/04 10:33:09;;;;;;;;;;;15.30;99.90;;;;;;5114049;28;20411;-49
2022/10/04 10:35:36;;;;;;;;;;;15.50;99.90;;;;;;5093958;28;20469;-50
2022/10/04 10:38:11;;;;;;;;;;;15.60;99.90;;;;;;5110863;28;20074;-49
2022/10/04 10:40:49;;;;;;;;;;;15.60;99.90;;;;;;5081877;28;19924;-50
2022/10/04 10:43:22;;;;;;;;;;;15.70;99.90;;;;;;5094800;28;20330;-49
2022/10/04 10:46:15;;;;;;;;;;;15.80;99.90;;;;;;5097563;28;20109;-51
2022/10/04 10:48:50;;;;;;;;;;;16.00;99.90;;;;;;5110283;28;20103;-52
2022/10/04 10:51:35;;;;;;;;;;;15.90;99.90;;;;;;5113001;28;20397;-50
2022/10/04 10:54:28;;;;;;;;;;;16.10;99.90;;;;;;5101607;28;20346;-50
2022/10/04 10:57:11;;;;;;;;;;;16.00;99.90;;;;;;5113585;28;19969;-49
2022/10/04 10:59:58;;;;;;;;;;;16.20;99.90;;;;;;5112367;28;19999;-49
2022/10/04 11:02:43;;;;;;;;;;;16.20;99.90;;;;;;5095300;28;20018;-49
2022/10/04 11:05:32;;;;;;;;;;;16.10;99.90;;;;;;5112890;28;19919;-51
2022/10/04 11:08:10;;;;;;;;;;;16.00;99.90;;;;;;5113691;28;19962;-52
2022/10/04 11:10:37;;;;;;;;;;;16.00;99.90;;;;;;5102524;28;19942;-51
2022/10/04 11:13:17;;;;;;;;;;;15.80;99.90;;;;;;5113377;28;19973;-50
2022/10/04 11:15:47;;;;;;;;;;;15.70;99.90;;;;;;5113225;28;19959;-50
2022/10/04 11:18:32;;;;;;;;;;;15.60;99.90;;;;;;5096064;28;20022;-49
2022/10/04 11:21:24;;;;;;;;;;;15.60;99.90;;;;;;5113226;28;20410;-51
2022/10/04 11:24:13;;;;;;;;;;;15.50;99.90;;;;;;5084273;28;19920;-50
2022/10/04 11:26:46;;;;;;;;;;;15.40;99.90;;;;;;5109388;28;20447;-49
2022/10/04 11:29:31;;;;;;;;;;;15.40;99.90;;;;;;5108365;28;19946;-51
2022/10/04 11:32:01;;;;;;;;;;;15.50;99.90;;;;;;5106268;28;19975;-49
2022/10/04 11:34:28;;;;;;;;;;;15.60;99.90;;;;;;5091558;28;19920;-48
2022/10/04 11:36:55;;;;;;;;;;;15.70;99.90;;;;;;5091776;28;20012;-52
2022/10/04 11:39:31;;;;;;;;;;;15.80;99.90;;;;;;5093158;28;20019;-50
2022/10/04 11:42:19;;;;;;;;;;;15.90;99.90;;;;;;5093835;28;20376;-50
2022/10/04 11:45:01;;;;;;;;;;;15.90;99.90;;;;;;5112414;28;19970;-49
2022/10/04 11:47:37;;;;;;;;;;;16.00;99.90;;;;;;5113044;28;20006;-49
2022/10/04 11:50:07;;;;;;;;;;;16.00;99.90;;;;;;5113162;28;20014;-50
2022/10/04 11:52:42;;;;;;;;;;;16.10;99.90;;;;;;5096711;28;20501;-50
2022/10/04 11:55:25;;;;;;;;;;;16.10;99.90;;;;;;5112266;28;20295;-49
2022/10/04 11:58:02;;;;;;;;;;;16.20;99.90;;;;;;5107187;28;19951;-49
2022/10/04 12:00:53;;;;;;;;;;;16.10;99.90;;;;;;5112373;28;20396;-49
2022/10/04 12:03:34;;;;;;;;;;;16.20;99.90;;;;;;5074622;28;19970;-49
2022/10/04 12:06:21;;;;;;;;;;;16.30;99.90;;;;;;5100160;28;19924;-50
2022/10/04 12:08:51;;;;;;;;;;;16.20;99.90;;;;;;5099789;28;19920;-50
2022/10/04 12:12:35;;;;;;;;;;;16.30;99.90;;;;;;5112336;28;20356;-50
2022/10/04 12:14:23;;;;;;;;;;;16.30;99.90;;;;;;5111974;28;20307;-51
2022/10/04 12:17:09;;;;;;;;;;;16.30;99.90;;;;;;5103568;28;19955;-50
2022/10/04 12:19:38;;;;;;;;;;;16.20;99.90;;;;;;5111984;28;20388;-50
2022/10/04 12:22:12;;;;;;;;;;;16.30;99.90;;;;;;5112456;28;20360;-49
2022/10/04 12:25:06;;;;;;;;;;;16.40;99.90;;;;;;5104813;28;19924;-49
2022/10/04 12:27:59;;;;;;;;;;;16.40;99.90;;;;;;5071191;28;19959;-50
2022/10/04 12:30:45;;;;;;;;;;;16.30;99.90;;;;;;5072126;28;19952;-52
2022/10/04 12:33:31;;;;;;;;;;;16.20;99.90;;;;;;5091729;28;20306;-49
2022/10/04 12:35:57;;;;;;;;;;;16.10;99.90;;;;;;5112371;28;19962;-49
2022/10/04 12:38:33;;;;;;;;;;;16.10;99.90;;;;;;5112104;28;19966;-51
2022/10/04 12:41:12;;;;;;;;;;;16.20;99.90;;;;;;5089863;28;19990;-49
2022/10/04 12:44:00;;;;;;;;;;;16.10;99.90;;;;;;5104009;28;20014;-49
2022/10/04 12:46:36;;;;;;;;;;;16.10;99.90;;;;;;5111720;28;19978;-50
2022/10/04 12:49:05;;;;;;;;;;;16.10;99.90;;;;;;5109712;28;19965;-49
2022/10/04 12:51:51;;;;;;;;;;;16.20;99.90;;;;;;5079948;28;19955;-49
2022/10/04 12:54:37;;;;;;;;;;;16.20;99.90;;;;;;5107771;28;20006;-48
2022/10/04 12:57:23;;;;;;;;;;;16.50;99.90;;;;;;5111888;28;19919;-49
2022/10/04 12:59:53;;;;;;;;;;;16.50;99.90;;;;;;5097745;28;19919;-50
2022/10/04 13:02:23;;;;;;;;;;;16.40;99.90;;;;;;5095076;28;20075;-49
2022/10/04 13:05:08;;;;;;;;;;;16.30;99.90;;;;;;5111137;28;19924;-50
2022/10/04 13:07:45;;;;;;;;;;;16.20;99.90;;;;;;5111694;28;19967;-52
2022/10/04 13:10:22;;;;;;;;;;;16.30;99.90;;;;;;5099080;28;19958;-49
2022/10/04 13:13:07;;;;;;;;;;;16.20;99.90;;;;;;5111826;28;19927;-49
2022/10/04 13:15:38;;;;;;;;;;;16.30;99.90;;;;;;5111176;28;19966;-52
2022/10/04 13:18:30;;;;;;;;;;;16.50;99.90;;;;;;5100632;28;20398;-50
2022/10/04 13:21:02;;;;;;;;;;;16.80;99.90;;;;;;5111700;28;20085;-50
2022/10/04 13:23:37;;;;;;;;;;;17.00;99.90;;;;;;5111244;28;19957;-51
2022/10/04 13:26:14;;;;;;;;;;;17.10;99.90;;;;;;5111607;28;19996;-50
2022/10/04 13:29:01;;;;;;;;;;;17.00;99.90;;;;;;5100003;28;19928;-50
2022/10/04 13:31:31;;;;;;;;;;;17.10;99.90;;;;;;5115041;28;20429;-49
2022/10/04 13:33:58;;;;;;;;;;;17.10;99.90;;;;;;5110326;28;19943;-52
2022/10/04 13:36:40;;;;;;;;;;;17.10;99.90;;;;;;5110095;28;19952;-49
2022/10/04 13:39:19;;;;;;;;;;;17.10;99.90;;;;;;5111656;28;20010;-50
2022/10/04 13:42:05;;;;;;;;;;;17.20;99.90;;;;;;5094687;28;20443;-50
2022/10/04 13:44:41;;;;;;;;;;;17.30;99.90;;;;;;5094544;28;19920;-50
2022/10/04 13:47:10;;;;;;;;;;;17.30;99.90;;;;;;5101646;28;19959;-51
2022/10/04 13:50:16;;;;;;;;;;;17.30;99.90;;;;;;5114380;28;19970;-49
2022/10/04 13:58:29;;;;;;;;;;;16.90;99.90;;;;;;5099931;28;19919;-49
2022/10/04 14:00:58;;;;;;;;;;;16.80;99.90;;;;;;5100581;28;19970;-50
2022/10/04 14:03:44;;;;;;;;;;;16.70;99.90;;;;;;5090698;28;19948;-49
2022/10/04 14:06:21;;;;;;;;;;;16.70;99.90;;;;;;5114786;28;19923;-50
2022/10/04 14:09:07;;;;;;;;;;;16.60;99.90;;;;;;5112829;28;20023;-49
2022/10/04 14:11:52;;;;;;;;;;;16.60;99.90;;;;;;5098731;28;20366;-48
2022/10/04 14:14:43;;;;;;;;;;;16.60;99.90;;;;;;5127514;22;19939;-47
2022/10/04 14:17:25;;;;;;;;;;;16.60;99.90;;;;;;5090708;28;20446;-48
2022/10/04 14:19:57;;;;;;;;;;;16.60;99.90;;;;;;5074453;28;19966;-49
2022/10/04 14:22:26;;;;;;;;;;;16.60;99.90;;;;;;5114491;28;19920;-49
2022/10/04 14:25:04;;;;;;;;;;;16.60;99.90;;;;;;5106026;28;19947;-47
2022/10/04 14:27:38;;;;;;;;;;;16.70;99.90;;;;;;5090783;28;20332;-48
2022/10/04 14:30:24;;;;;;;;;;;16.80;99.90;;;;;;5086673;28;19920;-47
2022/10/04 14:33:10;;;;;;;;;;;16.80;99.90;;;;;;5093661;28;20363;-48
2022/10/04 14:35:40;;;;;;;;;;;16.70;99.90;;;;;;5060508;28;20416;-49
2022/10/04 14:38:15;;;;;;;;;;;16.60;99.90;;;;;;5086651;28;19923;-48
2022/10/04 14:40:42;;;;;;;;;;;16.50;99.90;;;;;;5092457;28;20011;-48
2022/10/04 14:43:34;;;;;;;;;;;16.50;99.90;;;;;;5091440;28;20010;-49
2022/10/04 14:46:13;;;;;;;;;;;16.60;99.90;;;;;;5058635;28;19925;-48
2022/10/04 14:48:42;;;;;;;;;;;16.80;99.90;;;;;;5079485;28;20391;-49
2022/10/04 14:51:18;;;;;;;;;;;16.80;99.90;;;;;;5075567;28;19963;-47
2022/10/04 14:54:04;;;;;;;;;;;16.80;99.90;;;;;;5081803;28;20018;-47
2022/10/04 14:56:56;;;;;;;;;;;16.80;99.90;;;;;;5093518;28;19947;-48
2022/10/04 14:59:32;;;;;;;;;;;16.80;99.90;;;;;;5093767;28;19984;-48
2022/10/04 15:01:59;;;;;;;;;;;16.70;99.90;;;;;;5081420;28;19956;-49
2022/10/04 15:04:28;;;;;;;;;;;16.60;99.90;;;;;;5079898;28;19920;-49
2022/10/04 15:06:57;;;;;;;;;;;16.60;99.90;;;;;;5093206;28;20338;-49
2022/10/04 15:09:28;;;;;;;;;;;16.60;99.90;;;;;;5071123;28;19921;-47
2022/10/04 15:12:18;;;;;;;;;;;16.50;99.90;;;;;;5093250;28;20018;-49
2022/10/04 15:15:11;;;;;;;;;;;16.50;99.90;;;;;;5091704;28;20283;-51
2022/10/04 15:17:41;;;;;;;;;;;16.30;99.90;;;;;;5093100;28;20345;-49
2022/10/04 15:20:18;;;;;;;;;;;16.20;99.90;;;;;;5071605;28;19998;-50
2022/10/04 15:22:50;;;;;;;;;;;16.10;99.90;;;;;;5092915;28;19927;-50
2022/10/04 15:25:36;;;;;;;;;;;16.00;99.90;;;;;;5092455;28;19924;-50